sensor_id;sensor_type;location;lat;lon;timestamp;temperature;humidity
52799;DHT22;38667;42.872;74.622;2023-11-18T00:00:47;12.10;39.10
52799;DHT22;38667;42.872;74.622;2023-11-18T00:03:14;12.00;39.00
52799;DHT22;38667;42.872;74.622;2023-11-18T00:05:41;11.90;38.60
52799;DHT22;38667;42.872;74.622;2023-11-18T00:08:07;11.80;39.80
52799;DHT22;38667;42.872;74.622;2023-11-18T00:10:33;11.70;40.50
52799;DHT22;38667;42.872;74.622;2023-11-18T00:13:00;11.50;38.50
52799;DHT22;38667;42.872;74.622;2023-11-18T00:15:26;11.80;33.20
52799;DHT22;38667;42.872;74.622;2023-11-18T00:17:52;12.60;29.90
52799;DHT22;38667;42.872;74.622;2023-11-18T00:20:20;13.60;28.10
52799;DHT22;38667;42.872;74.622;2023-11-18T00:22:46;14.20;28.40
52799;DHT22;38667;42.872;74.622;2023-11-18T00:25:12;14.40;27.50
52799;DHT22;38667;42.872;74.622;2023-11-18T00:27:39;14.50;27.90
52799;DHT22;38667;42.872;74.622;2023-11-18T00:30:06;14.50;28.20
52799;DHT22;38667;42.872;74.622;2023-11-18T00:32:33;14.40;28.90
52799;DHT22;38667;42.872;74.622;2023-11-18T00:34:59;14.30;30.40
52799;DHT22;38667;42.872;74.622;2023-11-18T00:37:27;14.10;30.60
52799;DHT22;38667;42.872;74.622;2023-11-18T00:39:53;14.00;30.90
52799;DHT22;38667;42.872;74.622;2023-11-18T00:42:20;13.80;31.50
52799;DHT22;38667;42.872;74.622;2023-11-18T00:44:46;13.60;32.20
52799;DHT22;38667;42.872;74.622;2023-11-18T00:47:12;13.50;32.30
52799;DHT22;38667;42.872;74.622;2023-11-18T00:49:38;13.50;32.00
52799;DHT22;38667;42.872;74.622;2023-11-18T00:52:05;13.50;32.20
52799;DHT22;38667;42.872;74.622;2023-11-18T00:54:34;13.50;32.10
52799;DHT22;38667;42.872;74.622;2023-11-18T00:57:00;13.50;31.80
52799;DHT22;38667;42.872;74.622;2023-11-18T00:59:27;13.60;31.80
52799;DHT22;38667;42.872;74.622;2023-11-18T01:01:53;13.60;32.00
52799;DHT22;38667;42.872;74.622;2023-11-18T01:04:19;13.60;31.60
52799;DHT22;38667;42.872;74.622;2023-11-18T01:06:46;13.60;30.80
52799;DHT22;38667;42.872;74.622;2023-11-18T01:09:12;13.80;30.10
52799;DHT22;38667;42.872;74.622;2023-11-18T01:11:40;14.00;29.50
52799;DHT22;38667;42.872;74.622;2023-11-18T01:14:06;14.30;28.80
52799;DHT22;38667;42.872;74.622;2023-11-18T01:16:32;14.40;28.50
52799;DHT22;38667;42.872;74.622;2023-11-18T01:18:59;14.60;28.20
52799;DHT22;38667;42.872;74.622;2023-11-18T01:21:25;14.80;27.90
52799;DHT22;38667;42.872;74.622;2023-11-18T01:23:51;15.00;26.60
52799;DHT22;38667;42.872;74.622;2023-11-18T01:26:18;15.20;26.20
52799;DHT22;38667;42.872;74.622;2023-11-18T01:28:45;15.50;24.70
52799;DHT22;38667;42.872;74.622;2023-11-18T01:31:12;15.90;24.50
52799;DHT22;38667;42.872;74.622;2023-11-18T01:33:38;16.10;23.80
52799;DHT22;38667;42.872;74.622;2023-11-18T01:36:06;16.30;23.30
52799;DHT22;38667;42.872;74.622;2023-11-18T01:38:33;16.60;22.60
52799;DHT22;38667;42.872;74.622;2023-11-18T01:40:59;16.90;21.90
52799;DHT22;38667;42.872;74.622;2023-11-18T01:43:25;17.10;22.10
52799;DHT22;38667;42.872;74.622;2023-11-18T01:45:53;17.20;22.10
52799;DHT22;38667;42.872;74.622;2023-11-18T01:48:20;17.20;22.40
52799;DHT22;38667;42.872;74.622;2023-11-18T01:50:46;17.10;22.80
52799;DHT22;38667;42.872;74.622;2023-11-18T01:53:13;17.00;23.10
52799;DHT22;38667;42.872;74.622;2023-11-18T01:55:39;16.80;23.90
52799;DHT22;38667;42.872;74.622;2023-11-18T01:58:05;16.80;23.60
52799;DHT22;38667;42.872;74.622;2023-11-18T02:00:32;16.70;23.90
52799;DHT22;38667;42.872;74.622;2023-11-18T02:02:59;16.60;23.90
52799;DHT22;38667;42.872;74.622;2023-11-18T02:05:26;16.60;24.00
52799;DHT22;38667;42.872;74.622;2023-11-18T02:07:52;16.50;24.20
52799;DHT22;38667;42.872;74.622;2023-11-18T02:10:19;16.50;24.10
52799;DHT22;38667;42.872;74.622;2023-11-18T02:12:51;16.50;23.80
52799;DHT22;38667;42.872;74.622;2023-11-18T02:15:21;16.50;23.70
52799;DHT22;38667;42.872;74.622;2023-11-18T02:17:49;16.50;23.60
52799;DHT22;38667;42.872;74.622;2023-11-18T02:20:20;16.50;23.80
52799;DHT22;38667;42.872;74.622;2023-11-18T02:22:47;16.50;23.70
52799;DHT22;38667;42.872;74.622;2023-11-18T02:25:16;16.50;24.10
52799;DHT22;38667;42.872;74.622;2023-11-18T02:27:44;16.50;24.50
52799;DHT22;38667;42.872;74.622;2023-11-18T02:30:11;16.40;24.60
52799;DHT22;38667;42.872;74.622;2023-11-18T02:32:40;16.40;24.70
52799;DHT22;38667;42.872;74.622;2023-11-18T02:35:10;16.30;24.40
52799;DHT22;38667;42.872;74.622;2023-11-18T02:37:39;16.40;24.20
52799;DHT22;38667;42.872;74.622;2023-11-18T02:40:08;16.40;24.00
52799;DHT22;38667;42.872;74.622;2023-11-18T02:42:36;16.50;24.10
52799;DHT22;38667;42.872;74.622;2023-11-18T02:45:07;16.60;23.90
52799;DHT22;38667;42.872;74.622;2023-11-18T02:47:34;16.60;24.00
52799;DHT22;38667;42.872;74.622;2023-11-18T02:50:00;16.70;23.70
52799;DHT22;38667;42.872;74.622;2023-11-18T02:52:26;16.80;23.40
52799;DHT22;38667;42.872;74.622;2023-11-18T02:54:52;16.80;23.30
52799;DHT22;38667;42.872;74.622;2023-11-18T02:57:19;17.00;22.70
52799;DHT22;38667;42.872;74.622;2023-11-18T02:59:45;17.10;23.20
52799;DHT22;38667;42.872;74.622;2023-11-18T03:02:13;17.20;22.40
52799;DHT22;38667;42.872;74.622;2023-11-18T03:04:39;17.30;22.00
52799;DHT22;38667;42.872;74.622;2023-11-18T03:07:06;17.50;21.70
52799;DHT22;38667;42.872;74.622;2023-11-18T03:09:33;17.60;21.50
52799;DHT22;38667;42.872;74.622;2023-11-18T03:12:00;17.70;20.70
52799;DHT22;38667;42.872;74.622;2023-11-18T03:14:26;17.90;20.30
52799;DHT22;38667;42.872;74.622;2023-11-18T03:16:52;18.10;20.00
52799;DHT22;38667;42.872;74.622;2023-11-18T03:19:20;18.30;19.60
52799;DHT22;38667;42.872;74.622;2023-11-18T03:21:51;18.50;19.30
52799;DHT22;38667;42.872;74.622;2023-11-18T03:24:17;18.70;19.70
52799;DHT22;38667;42.872;74.622;2023-11-18T03:26:43;18.90;19.30
52799;DHT22;38667;42.872;74.622;2023-11-18T03:29:09;19.00;19.30
52799;DHT22;38667;42.872;74.622;2023-11-18T03:31:36;19.10;19.50
52799;DHT22;38667;42.872;74.622;2023-11-18T03:34:02;19.30;19.20
52799;DHT22;38667;42.872;74.622;2023-11-18T03:36:30;19.40;19.10
52799;DHT22;38667;42.872;74.622;2023-11-18T03:38:56;19.60;19.00
52799;DHT22;38667;42.872;74.622;2023-11-18T03:41:23;19.80;19.10
52799;DHT22;38667;42.872;74.622;2023-11-18T03:43:49;19.80;19.10
52799;DHT22;38667;42.872;74.622;2023-11-18T03:46:15;19.90;18.80
52799;DHT22;38667;42.872;74.622;2023-11-18T03:48:43;20.00;19.00
52799;DHT22;38667;42.872;74.622;2023-11-18T03:51:10;20.10;19.00
52799;DHT22;38667;42.872;74.622;2023-11-18T03:53:37;20.20;19.10
52799;DHT22;38667;42.872;74.622;2023-11-18T03:56:04;20.30;18.90
52799;DHT22;38667;42.872;74.622;2023-11-18T03:58:31;20.40;18.70
52799;DHT22;38667;42.872;74.622;2023-11-18T04:00:57;20.50;18.70
52799;DHT22;38667;42.872;74.622;2023-11-18T04:03:23;20.50;18.60
52799;DHT22;38667;42.872;74.622;2023-11-18T04:05:49;20.50;18.80
52799;DHT22;38667;42.872;74.622;2023-11-18T04:08:16;20.50;18.90
52799;DHT22;38667;42.872;74.622;2023-11-18T04:10:44;20.50;18.90
52799;DHT22;38667;42.872;74.622;2023-11-18T04:13:10;20.40;19.60
52799;DHT22;38667;42.872;74.622;2023-11-18T04:15:36;20.20;23.50
52799;DHT22;38667;42.872;74.622;2023-11-18T04:18:03;19.90;24.00
52799;DHT22;38667;42.872;74.622;2023-11-18T04:20:29;19.50;25.40
52799;DHT22;38667;42.872;74.622;2023-11-18T04:22:55;19.30;25.70
52799;DHT22;38667;42.872;74.622;2023-11-18T04:25:22;19.20;26.20
52799;DHT22;38667;42.872;74.622;2023-11-18T04:27:49;19.10;27.70
52799;DHT22;38667;42.872;74.622;2023-11-18T04:30:16;19.10;26.90
52799;DHT22;38667;42.872;74.622;2023-11-18T04:32:42;19.00;26.50
52799;DHT22;38667;42.872;74.622;2023-11-18T04:35:09;19.10;26.00
52799;DHT22;38667;42.872;74.622;2023-11-18T04:37:35;19.20;26.50
52799;DHT22;38667;42.872;74.622;2023-11-18T04:40:01;19.40;27.30
52799;DHT22;38667;42.872;74.622;2023-11-18T04:42:28;19.40;27.50
52799;DHT22;38667;42.872;74.622;2023-11-18T04:44:56;19.50;27.60
52799;DHT22;38667;42.872;74.622;2023-11-18T04:47:22;19.70;27.60
52799;DHT22;38667;42.872;74.622;2023-11-18T04:49:49;19.80;27.30
52799;DHT22;38667;42.872;74.622;2023-11-18T04:52:15;19.80;27.70
52799;DHT22;38667;42.872;74.622;2023-11-18T04:54:41;19.90;27.30
52799;DHT22;38667;42.872;74.622;2023-11-18T04:57:08;19.90;27.40
52799;DHT22;38667;42.872;74.622;2023-11-18T04:59:34;19.90;27.80
52799;DHT22;38667;42.872;74.622;2023-11-18T05:02:02;20.00;27.30
52799;DHT22;38667;42.872;74.622;2023-11-18T05:04:28;20.00;27.70
52799;DHT22;38667;42.872;74.622;2023-11-18T05:06:54;20.00;28.30
52799;DHT22;38667;42.872;74.622;2023-11-18T05:09:21;20.00;28.20
52799;DHT22;38667;42.872;74.622;2023-11-18T05:11:47;20.00;28.60
52799;DHT22;38667;42.872;74.622;2023-11-18T05:14:13;20.10;28.80
52799;DHT22;38667;42.872;74.622;2023-11-18T05:16:40;20.10;30.20
52799;DHT22;38667;42.872;74.622;2023-11-18T05:19:08;20.10;29.60
52799;DHT22;38667;42.872;74.622;2023-11-18T05:21:34;20.10;27.30
52799;DHT22;38667;42.872;74.622;2023-11-18T05:24:01;20.00;26.20
52799;DHT22;38667;42.872;74.622;2023-11-18T05:26:27;20.00;26.30
52799;DHT22;38667;42.872;74.622;2023-11-18T05:28:53;20.00;27.70
52799;DHT22;38667;42.872;74.622;2023-11-18T05:31:20;20.00;26.60
52799;DHT22;38667;42.872;74.622;2023-11-18T05:33:46;20.00;26.30
52799;DHT22;38667;42.872;74.622;2023-11-18T05:36:14;20.00;27.50
52799;DHT22;38667;42.872;74.622;2023-11-18T05:38:40;20.00;28.50
52799;DHT22;38667;42.872;74.622;2023-11-18T05:41:06;20.00;28.20
52799;DHT22;38667;42.872;74.622;2023-11-18T05:43:33;20.00;27.30
52799;DHT22;38667;42.872;74.622;2023-11-18T05:45:59;20.10;27.80
52799;DHT22;38667;42.872;74.622;2023-11-18T05:48:26;20.20;29.30
52799;DHT22;38667;42.872;74.622;2023-11-18T05:50:52;20.30;29.20
52799;DHT22;38667;42.872;74.622;2023-11-18T05:53:20;20.40;26.20
52799;DHT22;38667;42.872;74.622;2023-11-18T05:55:46;20.50;26.90
52799;DHT22;38667;42.872;74.622;2023-11-18T05:58:12;20.50;27.00
52799;DHT22;38667;42.872;74.622;2023-11-18T06:00:39;20.60;26.40
52799;DHT22;38667;42.872;74.622;2023-11-18T06:03:05;20.70;26.70
52799;DHT22;38667;42.872;74.622;2023-11-18T06:05:31;20.80;26.50
52799;DHT22;38667;42.872;74.622;2023-11-18T06:07:58;20.80;26.70
52799;DHT22;38667;42.872;74.622;2023-11-18T06:10:25;20.80;27.00
52799;DHT22;38667;42.872;74.622;2023-11-18T06:12:52;20.90;26.80
52799;DHT22;38667;42.872;74.622;2023-11-18T06:15:18;20.90;28.20
52799;DHT22;38667;42.872;74.622;2023-11-18T06:17:44;20.90;27.10
52799;DHT22;38667;42.872;74.622;2023-11-18T06:20:11;20.90;26.90
52799;DHT22;38667;42.872;74.622;2023-11-18T06:22:37;20.80;26.00
52799;DHT22;38667;42.872;74.622;2023-11-18T06:25:04;20.80;26.50
52799;DHT22;38667;42.872;74.622;2023-11-18T06:27:32;20.90;26.80
52799;DHT22;38667;42.872;74.622;2023-11-18T06:29:59;20.90;26.90
52799;DHT22;38667;42.872;74.622;2023-11-18T06:32:25;20.90;27.50
52799;DHT22;38667;42.872;74.622;2023-11-18T06:34:51;21.00;27.10
52799;DHT22;38667;42.872;74.622;2023-11-18T06:37:18;21.00;27.60
52799;DHT22;38667;42.872;74.622;2023-11-18T06:39:44;21.00;27.00
52799;DHT22;38667;42.872;74.622;2023-11-18T06:42:10;21.00;25.80
52799;DHT22;38667;42.872;74.622;2023-11-18T06:44:38;20.90;26.10
52799;DHT22;38667;42.872;74.622;2023-11-18T06:47:05;20.80;26.10
52799;DHT22;38667;42.872;74.622;2023-11-18T06:49:31;20.80;26.10
52799;DHT22;38667;42.872;74.622;2023-11-18T06:51:57;20.90;27.90
52799;DHT22;38667;42.872;74.622;2023-11-18T06:54:24;20.80;28.30
52799;DHT22;38667;42.872;74.622;2023-11-18T06:56:50;20.80;27.70
52799;DHT22;38667;42.872;74.622;2023-11-18T06:59:16;20.90;27.20
52799;DHT22;38667;42.872;74.622;2023-11-18T07:01:44;21.00;26.90
52799;DHT22;38667;42.872;74.622;2023-11-18T07:04:11;21.00;27.00
52799;DHT22;38667;42.872;74.622;2023-11-18T07:06:37;20.90;26.90
52799;DHT22;38667;42.872;74.622;2023-11-18T07:09:04;21.00;26.70
52799;DHT22;38667;42.872;74.622;2023-11-18T07:11:31;21.00;27.20
52799;DHT22;38667;42.872;74.622;2023-11-18T07:13:57;21.00;26.60
52799;DHT22;38667;42.872;74.622;2023-11-18T07:16:24;20.90;25.60
52799;DHT22;38667;42.872;74.622;2023-11-18T07:18:52;21.00;26.60
52799;DHT22;38667;42.872;74.622;2023-11-18T07:21:19;21.00;26.20
52799;DHT22;38667;42.872;74.622;2023-11-18T07:23:45;21.00;26.20
52799;DHT22;38667;42.872;74.622;2023-11-18T07:26:11;20.90;27.10
52799;DHT22;38667;42.872;74.622;2023-11-18T07:28:38;20.90;26.50
52799;DHT22;38667;42.872;74.622;2023-11-18T07:31:04;21.00;26.60
52799;DHT22;38667;42.872;74.622;2023-11-18T07:33:31;21.00;25.50
52799;DHT22;38667;42.872;74.622;2023-11-18T07:35:59;21.00;25.20
52799;DHT22;38667;42.872;74.622;2023-11-18T07:38:25;21.00;25.50
52799;DHT22;38667;42.872;74.622;2023-11-18T07:40:52;21.00;25.40
52799;DHT22;38667;42.872;74.622;2023-11-18T07:43:18;20.90;26.10
52799;DHT22;38667;42.872;74.622;2023-11-18T07:45:44;20.90;25.90
52799;DHT22;38667;42.872;74.622;2023-11-18T07:48:11;21.00;25.60
52799;DHT22;38667;42.872;74.622;2023-11-18T07:50:38;21.10;25.80
52799;DHT22;38667;42.872;74.622;2023-11-18T07:53:07;21.00;25.70
52799;DHT22;38667;42.872;74.622;2023-11-18T07:55:33;21.00;25.70
52799;DHT22;38667;42.872;74.622;2023-11-18T07:58:00;21.10;26.60
52799;DHT22;38667;42.872;74.622;2023-11-18T08:00:27;21.20;29.30
52799;DHT22;38667;42.872;74.622;2023-11-18T08:02:53;21.10;27.30
52799;DHT22;38667;42.872;74.622;2023-11-18T08:05:20;21.20;26.90
52799;DHT22;38667;42.872;74.622;2023-11-18T08:07:46;21.10;28.40
52799;DHT22;38667;42.872;74.622;2023-11-18T08:10:14;21.00;27.30
52799;DHT22;38667;42.872;74.622;2023-11-18T08:12:40;21.00;25.40
52799;DHT22;38667;42.872;74.622;2023-11-18T08:15:07;21.00;25.40
52799;DHT22;38667;42.872;74.622;2023-11-18T08:17:34;21.00;25.00
52799;DHT22;38667;42.872;74.622;2023-11-18T08:20:00;21.00;25.20
52799;DHT22;38667;42.872;74.622;2023-11-18T08:22:26;21.00;25.70
52799;DHT22;38667;42.872;74.622;2023-11-18T08:24:53;21.00;26.10
52799;DHT22;38667;42.872;74.622;2023-11-18T08:27:20;21.00;27.50
52799;DHT22;38667;42.872;74.622;2023-11-18T08:29:47;21.00;28.00
52799;DHT22;38667;42.872;74.622;2023-11-18T08:32:13;21.00;29.50
52799;DHT22;38667;42.872;74.622;2023-11-18T08:34:39;21.00;29.10
52799;DHT22;38667;42.872;74.622;2023-11-18T08:37:06;21.00;29.40
52799;DHT22;38667;42.872;74.622;2023-11-18T08:39:32;21.10;29.00
52799;DHT22;38667;42.872;74.622;2023-11-18T08:41:58;21.10;29.30
52799;DHT22;38667;42.872;74.622;2023-11-18T08:44:26;21.20;27.80
52799;DHT22;38667;42.872;74.622;2023-11-18T08:46:53;21.20;26.80
52799;DHT22;38667;42.872;74.622;2023-11-18T08:49:19;21.20;25.80
52799;DHT22;38667;42.872;74.622;2023-11-18T08:51:45;21.30;26.30
52799;DHT22;38667;42.872;74.622;2023-11-18T08:54:12;21.40;25.80
52799;DHT22;38667;42.872;74.622;2023-11-18T08:56:39;21.40;25.40
52799;DHT22;38667;42.872;74.622;2023-11-18T08:59:06;21.40;25.70
52799;DHT22;38667;42.872;74.622;2023-11-18T09:01:34;21.40;25.50
52799;DHT22;38667;42.872;74.622;2023-11-18T09:04:00;21.30;25.40
52799;DHT22;38667;42.872;74.622;2023-11-18T09:06:26;21.30;26.10
52799;DHT22;38667;42.872;74.622;2023-11-18T09:08:53;21.30;26.50
52799;DHT22;38667;42.872;74.622;2023-11-18T09:11:20;21.30;26.30
52799;DHT22;38667;42.872;74.622;2023-11-18T09:13:47;21.40;26.20
52799;DHT22;38667;42.872;74.622;2023-11-18T09:16:14;21.40;27.10
52799;DHT22;38667;42.872;74.622;2023-11-18T09:18:43;21.40;27.40
52799;DHT22;38667;42.872;74.622;2023-11-18T09:21:10;21.40;27.90
52799;DHT22;38667;42.872;74.622;2023-11-18T09:23:37;21.30;28.90
52799;DHT22;38667;42.872;74.622;2023-11-18T09:26:03;21.40;29.80
52799;DHT22;38667;42.872;74.622;2023-11-18T09:28:30;21.40;31.50
52799;DHT22;38667;42.872;74.622;2023-11-18T09:30:56;21.40;30.70
52799;DHT22;38667;42.872;74.622;2023-11-18T09:33:24;21.30;29.50
52799;DHT22;38667;42.872;74.622;2023-11-18T09:35:52;21.30;29.70
52799;DHT22;38667;42.872;74.622;2023-11-18T09:38:18;21.40;27.40
52799;DHT22;38667;42.872;74.622;2023-11-18T09:40:45;21.40;26.90
52799;DHT22;38667;42.872;74.622;2023-11-18T09:43:13;21.40;29.10
52799;DHT22;38667;42.872;74.622;2023-11-18T09:45:39;21.30;29.50
52799;DHT22;38667;42.872;74.622;2023-11-18T09:48:06;21.30;28.70
52799;DHT22;38667;42.872;74.622;2023-11-18T09:50:33;21.30;29.60
52799;DHT22;38667;42.872;74.622;2023-11-18T09:53:06;21.20;28.30
52799;DHT22;38667;42.872;74.622;2023-11-18T09:55:38;21.30;23.50
52799;DHT22;38667;42.872;74.622;2023-11-18T09:58:15;21.40;22.80
52799;DHT22;38667;42.872;74.622;2023-11-18T10:00:45;21.50;22.10
52799;DHT22;38667;42.872;74.622;2023-11-18T10:03:13;21.60;22.00
52799;DHT22;38667;42.872;74.622;2023-11-18T10:05:41;21.60;21.70
52799;DHT22;38667;42.872;74.622;2023-11-18T10:08:09;21.60;21.80
52799;DHT22;38667;42.872;74.622;2023-11-18T10:10:35;21.50;22.50
52799;DHT22;38667;42.872;74.622;2023-11-18T10:13:02;21.50;21.80
52799;DHT22;38667;42.872;74.622;2023-11-18T10:15:29;21.50;21.90
52799;DHT22;38667;42.872;74.622;2023-11-18T10:17:55;21.50;22.20
52799;DHT22;38667;42.872;74.622;2023-11-18T10:20:22;21.40;23.70
52799;DHT22;38667;42.872;74.622;2023-11-18T10:22:49;21.40;22.60
52799;DHT22;38667;42.872;74.622;2023-11-18T10:25:24;21.40;23.70
52799;DHT22;38667;42.872;74.622;2023-11-18T10:27:50;21.30;25.20
52799;DHT22;38667;42.872;74.622;2023-11-18T10:30:16;21.10;26.10
52799;DHT22;38667;42.872;74.622;2023-11-18T10:32:43;21.00;26.60
52799;DHT22;38667;42.872;74.622;2023-11-18T10:35:09;20.80;27.30
52799;DHT22;38667;42.872;74.622;2023-11-18T10:37:36;20.70;28.80
52799;DHT22;38667;42.872;74.622;2023-11-18T10:40:04;20.60;28.80
52799;DHT22;38667;42.872;74.622;2023-11-18T10:42:32;20.40;29.50
52799;DHT22;38667;42.872;74.622;2023-11-18T10:44:58;20.30;30.00
52799;DHT22;38667;42.872;74.622;2023-11-18T10:47:25;20.20;29.90
52799;DHT22;38667;42.872;74.622;2023-11-18T10:49:53;20.20;30.20
52799;DHT22;38667;42.872;74.622;2023-11-18T10:52:19;20.10;30.50
52799;DHT22;38667;42.872;74.622;2023-11-18T10:54:50;20.00;31.10
52799;DHT22;38667;42.872;74.622;2023-11-18T10:57:17;19.90;31.10
52799;DHT22;38667;42.872;74.622;2023-11-18T10:59:59;19.80;31.40
52799;DHT22;38667;42.872;74.622;2023-11-18T11:02:28;19.80;31.90
52799;DHT22;38667;42.872;74.622;2023-11-18T11:04:55;19.70;32.10
52799;DHT22;38667;42.872;74.622;2023-11-18T11:07:23;19.60;32.30
52799;DHT22;38667;42.872;74.622;2023-11-18T11:09:49;19.50;32.60
52799;DHT22;38667;42.872;74.622;2023-11-18T11:12:16;19.40;33.10
52799;DHT22;38667;42.872;74.622;2023-11-18T11:14:59;19.40;33.40
52799;DHT22;38667;42.872;74.622;2023-11-18T11:17:28;19.30;33.70
52799;DHT22;38667;42.872;74.622;2023-11-18T11:20:01;19.20;33.90
52799;DHT22;38667;42.872;74.622;2023-11-18T11:22:34;19.10;34.40
52799;DHT22;38667;42.872;74.622;2023-11-18T11:25:08;19.00;34.70
52799;DHT22;38667;42.872;74.622;2023-11-18T11:27:41;19.00;34.80
52799;DHT22;38667;42.872;74.622;2023-11-18T11:30:20;18.90;36.60
52799;DHT22;38667;42.872;74.622;2023-11-18T11:32:51;18.80;37.70
52799;DHT22;38667;42.872;74.622;2023-11-18T11:35:22;18.60;38.70
52799;DHT22;38667;42.872;74.622;2023-11-18T11:37:49;18.40;39.40
52799;DHT22;38667;42.872;74.622;2023-11-18T11:40:16;18.20;40.20
52799;DHT22;38667;42.872;74.622;2023-11-18T11:42:43;18.00;41.40
52799;DHT22;38667;42.872;74.622;2023-11-18T11:45:10;17.80;42.40
52799;DHT22;38667;42.872;74.622;2023-11-18T11:47:36;17.70;42.80
52799;DHT22;38667;42.872;74.622;2023-11-18T11:50:10;17.60;43.20
52799;DHT22;38667;42.872;74.622;2023-11-18T11:52:37;17.50;43.90
52799;DHT22;38667;42.872;74.622;2023-11-18T11:55:10;17.40;44.40
52799;DHT22;38667;42.872;74.622;2023-11-18T11:57:39;17.30;44.40
52799;DHT22;38667;42.872;74.622;2023-11-18T12:00:09;17.30;44.50
52799;DHT22;38667;42.872;74.622;2023-11-18T12:02:36;17.20;43.90
52799;DHT22;38667;42.872;74.622;2023-11-18T12:05:04;17.10;44.30
52799;DHT22;38667;42.872;74.622;2023-11-18T12:07:31;17.10;44.80
52799;DHT22;38667;42.872;74.622;2023-11-18T12:09:58;17.10;44.60
52799;DHT22;38667;42.872;74.622;2023-11-18T12:12:25;17.00;44.90
52799;DHT22;38667;42.872;74.622;2023-11-18T12:14:52;17.00;45.70
52799;DHT22;38667;42.872;74.622;2023-11-18T12:17:19;17.00;46.30
52799;DHT22;38667;42.872;74.622;2023-11-18T12:19:45;16.90;46.80
52799;DHT22;38667;42.872;74.622;2023-11-18T12:22:14;16.90;47.30
52799;DHT22;38667;42.872;74.622;2023-11-18T12:24:40;16.80;47.60
52799;DHT22;38667;42.872;74.622;2023-11-18T12:27:07;16.80;47.80
52799;DHT22;38667;42.872;74.622;2023-11-18T12:29:33;16.80;47.80
52799;DHT22;38667;42.872;74.622;2023-11-18T12:32:00;16.80;47.60
52799;DHT22;38667;42.872;74.622;2023-11-18T12:34:49;16.90;48.20
52799;DHT22;38667;42.872;74.622;2023-11-18T12:37:41;16.90;47.90
52799;DHT22;38667;42.872;74.622;2023-11-18T12:40:44;16.90;47.90
52799;DHT22;38667;42.872;74.622;2023-11-18T12:43:15;16.90;47.70
52799;DHT22;38667;42.872;74.622;2023-11-18T12:46:11;16.90;47.60
52799;DHT22;38667;42.872;74.622;2023-11-18T12:48:44;17.00;47.50
52799;DHT22;38667;42.872;74.622;2023-11-18T12:51:11;16.90;47.30
52799;DHT22;38667;42.872;74.622;2023-11-18T12:53:39;17.00;47.50
52799;DHT22;38667;42.872;74.622;2023-11-18T12:56:06;17.00;47.30
52799;DHT22;38667;42.872;74.622;2023-11-18T12:58:32;17.00;47.30
52799;DHT22;38667;42.872;74.622;2023-11-18T13:00:59;17.00;46.90
52799;DHT22;38667;42.872;74.622;2023-11-18T13:03:25;17.00;46.90
52799;DHT22;38667;42.872;74.622;2023-11-18T13:05:52;17.10;46.50
52799;DHT22;38667;42.872;74.622;2023-11-18T13:08:18;17.10;46.40
52799;DHT22;38667;42.872;74.622;2023-11-18T13:10:47;17.10;45.90
52799;DHT22;38667;42.872;74.622;2023-11-18T13:13:13;17.10;45.60
52799;DHT22;38667;42.872;74.622;2023-11-18T13:15:40;17.20;45.10
52799;DHT22;38667;42.872;74.622;2023-11-18T13:18:06;17.30;45.30
52799;DHT22;38667;42.872;74.622;2023-11-18T13:20:33;17.30;45.10
52799;DHT22;38667;42.872;74.622;2023-11-18T13:22:59;17.30;45.00
52799;DHT22;38667;42.872;74.622;2023-11-18T13:25:26;17.30;45.00
52799;DHT22;38667;42.872;74.622;2023-11-18T13:27:54;17.30;45.10
52799;DHT22;38667;42.872;74.622;2023-11-18T13:30:20;17.30;45.10
52799;DHT22;38667;42.872;74.622;2023-11-18T13:32:47;17.30;45.10
52799;DHT22;38667;42.872;74.622;2023-11-18T13:35:13;17.30;45.00
52799;DHT22;38667;42.872;74.622;2023-11-18T13:37:40;17.30;45.00
52799;DHT22;38667;42.872;74.622;2023-11-18T13:40:08;17.30;45.00
52799;DHT22;38667;42.872;74.622;2023-11-18T13:42:34;17.20;44.70
52799;DHT22;38667;42.872;74.622;2023-11-18T13:45:04;17.30;44.30
52799;DHT22;38667;42.872;74.622;2023-11-18T13:47:32;17.30;44.30
52799;DHT22;38667;42.872;74.622;2023-11-18T13:49:59;17.30;44.00
52799;DHT22;38667;42.872;74.622;2023-11-18T13:52:25;17.40;43.60
52799;DHT22;38667;42.872;74.622;2023-11-18T13:54:52;17.40;43.50
52799;DHT22;38667;42.872;74.622;2023-11-18T13:57:19;17.40;43.50
52799;DHT22;38667;42.872;74.622;2023-11-18T13:59:46;17.40;43.40
52799;DHT22;38667;42.872;74.622;2023-11-18T14:02:14;17.40;43.20
52799;DHT22;38667;42.872;74.622;2023-11-18T14:04:41;17.40;43.20
52799;DHT22;38667;42.872;74.622;2023-11-18T14:07:07;17.40;43.30
52799;DHT22;38667;42.872;74.622;2023-11-18T14:09:34;17.50;43.20
52799;DHT22;38667;42.872;74.622;2023-11-18T14:12:00;17.50;43.10
52799;DHT22;38667;42.872;74.622;2023-11-18T14:14:27;17.40;42.80
52799;DHT22;38667;42.872;74.622;2023-11-18T14:16:53;17.50;42.90
52799;DHT22;38667;42.872;74.622;2023-11-18T14:19:21;17.50;43.00
52799;DHT22;38667;42.872;74.622;2023-11-18T14:21:47;17.50;43.00
52799;DHT22;38667;42.872;74.622;2023-11-18T14:24:14;17.50;43.10
52799;DHT22;38667;42.872;74.622;2023-11-18T14:26:40;17.40;43.30
52799;DHT22;38667;42.872;74.622;2023-11-18T14:29:07;17.40;43.30
52799;DHT22;38667;42.872;74.622;2023-11-18T14:31:33;17.40;43.30
52799;DHT22;38667;42.872;74.622;2023-11-18T14:34:00;17.40;43.40
52799;DHT22;38667;42.872;74.622;2023-11-18T14:36:28;17.40;43.60
52799;DHT22;38667;42.872;74.622;2023-11-18T14:38:54;17.40;43.80
52799;DHT22;38667;42.872;74.622;2023-11-18T14:41:21;17.30;44.10
52799;DHT22;38667;42.872;74.622;2023-11-18T14:43:47;17.30;44.40
52799;DHT22;38667;42.872;74.622;2023-11-18T14:46:14;17.30;44.70
52799;DHT22;38667;42.872;74.622;2023-11-18T14:48:41;17.30;44.60
52799;DHT22;38667;42.872;74.622;2023-11-18T14:51:08;17.30;45.10
52799;DHT22;38667;42.872;74.622;2023-11-18T14:53:36;17.30;45.00
52799;DHT22;38667;42.872;74.622;2023-11-18T14:56:02;17.30;45.00
52799;DHT22;38667;42.872;74.622;2023-11-18T14:58:29;17.20;44.80
52799;DHT22;38667;42.872;74.622;2023-11-18T15:00:55;17.20;44.80
52799;DHT22;38667;42.872;74.622;2023-11-18T15:03:21;17.20;45.20
52799;DHT22;38667;42.872;74.622;2023-11-18T15:05:48;17.20;45.70
52799;DHT22;38667;42.872;74.622;2023-11-18T15:08:14;17.10;46.20
52799;DHT22;38667;42.872;74.622;2023-11-18T15:10:42;17.10;46.10
52799;DHT22;38667;42.872;74.622;2023-11-18T15:13:09;17.20;46.70
52799;DHT22;38667;42.872;74.622;2023-11-18T15:15:35;17.10;46.80